createdAt,value
2023-02-06T00:03:20.765Z,100.00
2023-02-06T00:07:22.328Z,100.00
2023-02-06T00:11:24.294Z,100.00
2023-02-06T00:15:25.861Z,100.00
2023-02-06T00:19:27.408Z,100.00
2023-02-06T00:23:28.995Z,100.00
2023-02-06T00:27:30.577Z,100.00
2023-02-06T00:31:33.750Z,100.00
2023-02-06T00:35:35.592Z,100.00
2023-02-06T00:39:37.532Z,100.00
2023-02-06T00:43:39.163Z,100.00
2023-02-06T00:47:40.737Z,100.00
2023-02-06T00:51:44.287Z,100.00
2023-02-06T00:55:45.834Z,100.00
2023-02-06T00:59:47.395Z,100.00
2023-02-06T01:03:48.987Z,100.00
2023-02-06T01:07:51.101Z,100.00
2023-02-06T01:11:53.042Z,100.00
2023-02-06T01:15:59.215Z,100.00
2023-02-06T01:20:01.137Z,100.00
2023-02-06T01:24:03.747Z,100.00
2023-02-06T01:28:05.377Z,100.00
2023-02-06T01:32:06.968Z,100.00
2023-02-06T01:36:08.637Z,100.00
2023-02-06T01:40:15.052Z,100.00
2023-02-06T01:44:22.546Z,100.00
2023-02-06T01:48:33.364Z,100.00
2023-02-06T01:52:35.158Z,100.00
2023-02-06T01:56:41.745Z,100.00
2023-02-06T02:00:44.314Z,100.00
2023-02-06T02:04:46.175Z,100.00
2023-02-06T02:13:58.871Z,100.00
2023-02-06T02:18:13.016Z,100.00
2023-02-06T02:22:32.658Z,100.00
2023-02-06T02:26:56.657Z,100.00
2023-02-06T02:31:14.892Z,100.00
2023-02-06T02:35:40.839Z,100.00
2023-02-06T02:40:03.281Z,100.00
2023-02-06T02:44:11.321Z,100.00
2023-02-06T02:48:25.339Z,100.00
2023-02-06T02:52:26.927Z,100.00
2023-02-06T02:56:31.178Z,100.00
2023-02-06T03:00:37.241Z,100.00
2023-02-06T03:04:44.919Z,100.00
2023-02-06T03:09:03.026Z,100.00
2023-02-06T03:13:22.739Z,100.00
2023-02-06T03:17:34.857Z,100.00
2023-02-06T03:21:38.734Z,100.00
2023-02-06T03:25:44.197Z,100.00
2023-02-06T03:29:49.049Z,100.00
2023-02-06T03:33:58.033Z,100.00
2023-02-06T03:37:59.888Z,100.00
2023-02-06T03:42:03.302Z,100.00
2023-02-06T03:46:06.445Z,100.00
2023-02-06T03:50:10.779Z,100.00
2023-02-06T03:54:16.430Z,100.00
2023-02-06T03:58:18.133Z,100.00
2023-02-06T04:02:22.118Z,100.00
2023-02-06T04:06:23.942Z,100.00
2023-02-06T04:10:26.503Z,100.00
2023-02-06T04:14:28.119Z,100.00
2023-02-06T04:18:29.753Z,100.00
2023-02-06T04:22:31.437Z,100.00
2023-02-06T04:26:32.982Z,100.00
2023-02-06T04:30:34.631Z,100.00
2023-02-06T04:34:37.064Z,100.00
2023-02-06T04:38:38.666Z,100.00
2023-02-06T04:42:40.182Z,100.00
2023-02-06T04:46:43.349Z,100.00
2023-02-06T04:50:44.880Z,100.00
2023-02-06T04:54:46.413Z,100.00
2023-02-06T04:58:48.058Z,100.00
2023-02-06T05:02:49.682Z,100.00
2023-02-06T05:06:51.345Z,100.00
2023-02-06T05:10:52.952Z,100.00
2023-02-06T05:14:55.356Z,100.00
2023-02-06T05:18:57.248Z,100.00
2023-02-06T05:22:58.875Z,100.00
2023-02-06T05:27:00.431Z,100.00
2023-02-06T05:31:03.184Z,100.00
2023-02-06T05:35:04.968Z,100.00
2023-02-06T05:39:06.541Z,100.00
2023-02-06T05:43:11.097Z,100.00
2023-02-06T05:47:12.709Z,100.00
2023-02-06T05:51:14.442Z,100.00
2023-02-06T05:55:18.357Z,100.00
2023-02-06T05:59:20.498Z,100.00
2023-02-06T06:03:27.362Z,100.00
2023-02-06T06:07:29.010Z,100.00
2023-02-06T06:11:31.157Z,100.00
2023-02-06T06:15:32.740Z,100.00
2023-02-06T06:19:34.370Z,100.00
2023-02-06T06:23:35.970Z,100.00
2023-02-06T06:27:37.538Z,100.00
2023-02-06T06:31:39.107Z,100.00
2023-02-06T06:35:40.763Z,100.00
2023-02-06T06:39:42.523Z,100.00
2023-02-06T06:43:44.123Z,100.00
2023-02-06T06:47:45.724Z,100.00
2023-02-06T06:51:47.301Z,100.00
2023-02-06T06:55:48.952Z,100.00
2023-02-06T06:59:50.827Z,100.00
2023-02-06T07:03:52.373Z,100.00
2023-02-06T07:07:54.005Z,100.00
2023-02-06T07:11:55.561Z,100.00
2023-02-06T07:15:57.139Z,100.00
2023-02-06T07:19:59.438Z,100.00
2023-02-06T07:24:04.625Z,100.00
2023-02-06T07:28:06.333Z,100.00
2023-02-06T07:32:08.063Z,100.00
2023-02-06T07:36:11.819Z,100.00
2023-02-06T07:40:13.487Z,100.00
2023-02-06T07:44:15.770Z,100.00
2023-02-06T07:48:17.408Z,100.00
2023-02-06T07:52:20.286Z,100.00
2023-02-06T07:56:23.624Z,100.00
2023-02-06T08:00:26.819Z,100.00
2023-02-06T08:04:35.140Z,100.00
2023-02-06T08:08:37.043Z,100.00
2023-02-06T08:12:38.607Z,100.00
2023-02-06T08:16:40.377Z,100.00
2023-02-06T08:20:42.647Z,100.00
2023-02-06T08:24:44.404Z,100.00
2023-02-06T08:28:47.806Z,100.00
2023-02-06T08:32:49.470Z,100.00
2023-02-06T08:36:51.027Z,100.00
2023-02-06T08:40:52.539Z,100.00
2023-02-06T08:44:54.361Z,100.00
2023-02-06T08:48:57.683Z,100.00
2023-02-06T08:53:00.115Z,100.00
2023-02-06T08:57:02.641Z,100.00
2023-02-06T09:01:08.822Z,100.00
2023-02-06T09:05:10.459Z,100.00
2023-02-06T09:09:12.803Z,100.00
2023-02-06T09:13:14.444Z,100.00
2023-02-06T09:17:16.639Z,100.00
2023-02-06T09:21:21.114Z,100.00
2023-02-06T09:25:22.712Z,100.00
2023-02-06T09:29:24.552Z,100.00
2023-02-06T09:33:26.182Z,100.00
2023-02-06T09:37:27.805Z,100.00
2023-02-06T09:41:41.632Z,100.00
2023-02-06T09:45:43.176Z,100.00
2023-02-06T09:49:49.082Z,100.00
2023-02-06T09:54:14.616Z,100.00
2023-02-06T09:58:51.074Z,100.00
2023-02-06T10:02:58.191Z,100.00
2023-02-06T10:07:20.692Z,100.00
2023-02-06T10:11:29.604Z,100.00
2023-02-06T10:15:36.126Z,100.00
2023-02-06T10:19:56.742Z,100.00
2023-02-06T10:24:08.549Z,100.00
2023-02-06T10:28:24.499Z,100.00
2023-02-06T10:32:44.736Z,100.00
2023-02-06T10:37:15.440Z,100.00
2023-02-06T10:41:39.845Z,100.00
2023-02-06T10:46:00.353Z,100.00
2023-02-06T10:50:37.493Z,100.00
2023-02-06T10:54:47.236Z,99.63
2023-02-06T10:58:54.586Z,95.68
2023-02-06T11:03:07.411Z,90.78
2023-02-06T11:07:17.600Z,92.31
2023-02-06T11:11:24.579Z,92.37
2023-02-06T11:15:44.592Z,94.72
2023-02-06T11:19:50.910Z,96.28
2023-02-06T11:24:09.461Z,95.62
2023-02-06T11:28:14.960Z,93.60
2023-02-06T11:32:25.780Z,88.41
2023-02-06T11:36:31.686Z,88.56
2023-02-06T11:40:33.417Z,88.41
2023-02-06T11:44:38.573Z,84.40
2023-02-06T11:48:46.530Z,85.15
2023-02-06T11:52:48.774Z,84.85
2023-02-06T11:57:20.133Z,83.00
2023-02-06T12:01:22.693Z,81.74
2023-02-06T12:05:28.130Z,82.83
2023-02-06T12:09:30.120Z,83.75
2023-02-06T12:13:41.994Z,84.72
2023-02-06T12:17:55.571Z,86.33
2023-02-06T12:22:12.851Z,81.17
2023-02-06T12:26:18.591Z,77.50
2023-02-06T12:30:35.775Z,68.28
2023-02-06T12:34:44.691Z,66.45
2023-02-06T12:38:57.495Z,70.10
2023-02-06T12:43:13.751Z,72.60
2023-02-06T12:47:35.233Z,71.90
2023-02-06T12:51:41.359Z,73.83
2023-02-06T12:56:01.706Z,68.51
2023-02-06T13:00:12.833Z,64.66
2023-02-06T13:04:23.662Z,58.20
2023-02-06T13:08:48.681Z,53.24
2023-02-06T13:12:56.101Z,56.30
2023-02-06T13:17:16.777Z,58.57
2023-02-06T13:21:26.513Z,63.15
2023-02-06T13:25:46.517Z,63.92
2023-02-06T13:29:54.087Z,64.81
2023-02-06T13:34:06.180Z,62.49
2023-02-06T13:38:58.692Z,63.22
2023-02-06T13:43:26.902Z,63.70
2023-02-06T13:47:53.150Z,66.11
2023-02-06T13:52:38.170Z,67.83
2023-02-06T13:57:29.592Z,69.26
2023-02-06T14:01:49.299Z,69.16
2023-02-06T14:06:29.197Z,65.60
2023-02-06T14:11:27.098Z,67.20
2023-02-06T14:15:52.082Z,66.27
2023-02-06T14:19:58.471Z,65.00
2023-02-06T14:24:07.505Z,67.74
2023-02-06T14:28:27.236Z,66.78
2023-02-06T14:32:28.922Z,68.17
2023-02-06T14:37:00.263Z,70.10
2023-02-06T14:41:04.123Z,69.45
2023-02-06T14:45:28.472Z,69.79
2023-02-06T14:49:35.098Z,68.39
2023-02-06T14:53:39.349Z,67.13
2023-02-06T14:57:44.959Z,67.19
2023-02-06T15:01:50.103Z,66.16
2023-02-06T15:06:01.884Z,65.92
2023-02-06T15:10:14.075Z,66.17
2023-02-06T15:14:25.898Z,66.50
2023-02-06T15:18:27.458Z,64.50
2023-02-06T15:22:30.765Z,65.90
2023-02-06T15:26:46.150Z,66.28
2023-02-06T15:30:54.167Z,65.02
2023-02-06T15:34:56.481Z,65.63
2023-02-06T15:39:05.470Z,66.66
2023-02-06T15:43:22.145Z,66.49
2023-02-06T15:47:25.079Z,66.96
2023-02-06T15:51:28.177Z,66.95
2023-02-06T15:55:36.790Z,66.15
2023-02-06T15:59:40.735Z,66.63
2023-02-06T16:03:42.626Z,68.42
2023-02-06T16:07:48.265Z,68.56
2023-02-06T16:11:53.150Z,67.41
2023-02-06T16:16:16.829Z,69.15
2023-02-06T16:20:40.989Z,70.01
2023-02-06T16:24:43.026Z,71.19
2023-02-06T16:29:05.035Z,72.08
2023-02-06T16:33:25.581Z,72.82
2023-02-06T16:37:30.167Z,72.43
2023-02-06T16:41:34.709Z,72.66
2023-02-06T16:45:36.642Z,72.99
2023-02-06T16:49:38.446Z,72.48
2023-02-06T16:53:39.992Z,72.48
2023-02-06T16:57:44.938Z,71.98
2023-02-06T17:01:47.440Z,72.44
2023-02-06T17:05:50.296Z,73.50
2023-02-06T17:09:54.480Z,74.84
2023-02-06T17:13:56.369Z,75.74
2023-02-06T17:17:58.372Z,76.05
2023-02-06T17:22:01.383Z,75.56
2023-02-06T17:26:03.552Z,76.19
2023-02-06T17:30:05.510Z,76.08
2023-02-06T17:34:07.169Z,76.21
2023-02-06T17:38:09.966Z,76.49
2023-02-06T17:42:11.540Z,76.94
2023-02-06T17:46:13.226Z,77.69
2023-02-06T17:50:20.696Z,77.45
2023-02-06T17:54:22.627Z,77.60
2023-02-06T17:58:24.258Z,78.58
2023-02-06T18:02:25.849Z,78.74
2023-02-06T18:06:32.333Z,78.99
2023-02-06T18:10:33.963Z,78.50
2023-02-06T18:14:35.880Z,79.42
2023-02-06T18:18:37.453Z,80.22
2023-02-06T18:22:42.196Z,80.57
2023-02-06T18:26:43.743Z,81.25
2023-02-06T18:30:45.564Z,81.34
2023-02-06T18:34:48.073Z,81.10
2023-02-06T18:38:50.080Z,81.82
2023-02-06T18:42:51.788Z,82.34
2023-02-06T18:46:53.654Z,83.94
2023-02-06T18:50:57.510Z,84.06
2023-02-06T18:55:00.044Z,84.38
2023-02-06T18:59:01.669Z,84.92
2023-02-06T19:03:04.527Z,86.07
2023-02-06T19:07:06.253Z,87.27
2023-02-06T19:11:08.610Z,87.76
2023-02-06T19:15:11.209Z,88.58
2023-02-06T19:19:13.237Z,88.24
2023-02-06T19:23:14.977Z,88.69
2023-02-06T19:27:16.685Z,88.88
2023-02-06T19:31:24.007Z,89.71
2023-02-06T19:35:25.652Z,89.29
2023-02-06T19:39:27.430Z,90.16
2023-02-06T19:43:29.009Z,90.69
2023-02-06T19:47:30.598Z,90.58
2023-02-06T19:51:35.891Z,91.71
2023-02-06T19:55:37.639Z,91.63
2023-02-06T19:59:39.289Z,91.69
2023-02-06T20:03:41.499Z,92.13
2023-02-06T20:07:43.181Z,92.59
2023-02-06T20:11:44.898Z,94.09
2023-02-06T20:15:46.549Z,94.15
2023-02-06T20:19:48.140Z,95.23
2023-02-06T20:23:50.036Z,94.88
2023-02-06T20:27:53.826Z,96.40
2023-02-06T20:31:58.683Z,95.91
2023-02-06T20:36:05.323Z,96.53
2023-02-06T20:40:07.162Z,96.41
2023-02-06T20:44:11.622Z,95.14
2023-02-06T20:48:13.198Z,95.71
2023-02-06T20:52:14.890Z,96.68
2023-02-06T20:56:17.225Z,97.16
2023-02-06T21:00:18.965Z,98.02
2023-02-06T21:04:20.670Z,98.59
2023-02-06T21:08:22.673Z,98.81
2023-02-06T21:12:24.233Z,99.38
2023-02-06T21:16:31.050Z,100.00
2023-02-06T21:20:32.661Z,100.00
2023-02-06T21:24:34.241Z,100.00
2023-02-06T21:28:37.121Z,100.00
2023-02-06T21:32:38.748Z,100.00
2023-02-06T21:36:41.153Z,100.00
2023-02-06T21:40:42.949Z,100.00
2023-02-06T21:44:44.533Z,100.00
2023-02-06T21:48:51.161Z,100.00
2023-02-06T21:52:52.749Z,100.00
2023-02-06T21:56:54.403Z,100.00
2023-02-06T22:00:56.652Z,100.00
2023-02-06T22:04:59.737Z,100.00
2023-02-06T22:09:07.447Z,100.00
2023-02-06T22:13:09.260Z,100.00
2023-02-06T22:17:10.854Z,100.00
2023-02-06T22:21:15.201Z,100.00
2023-02-06T22:25:16.988Z,100.00
2023-02-06T22:29:18.738Z,99.26
2023-02-06T22:33:20.299Z,98.29
2023-02-06T22:37:22.170Z,97.47
2023-02-06T22:41:24.070Z,97.32
2023-02-06T22:45:25.684Z,96.67
2023-02-06T22:49:27.341Z,96.47
2023-02-06T22:53:35.097Z,96.69
2023-02-06T22:57:37.285Z,96.40
2023-02-06T23:01:42.054Z,96.24
2023-02-06T23:05:43.655Z,95.63
2023-02-06T23:09:45.220Z,96.42
2023-02-06T23:13:46.751Z,97.07
2023-02-06T23:17:49.651Z,97.81
2023-02-06T23:21:51.685Z,98.80
2023-02-06T23:25:53.640Z,99.78
2023-02-06T23:29:55.168Z,100.00
2023-02-06T23:33:56.731Z,100.00
2023-02-06T23:37:58.276Z,100.00
2023-02-06T23:41:59.824Z,100.00
2023-02-06T23:46:01.660Z,100.00
2023-02-06T23:50:04.780Z,100.00
2023-02-06T23:54:07.593Z,100.00
2023-02-06T23:58:09.065Z,100.00
